createdAt,value
2023-04-25T00:01:45.615Z,1.67
2023-04-25T00:04:50.731Z,1.70
2023-04-25T00:07:54.983Z,1.90
2023-04-25T00:10:59.146Z,2.00
2023-04-25T00:14:03.927Z,1.60
2023-04-25T00:17:08.960Z,2.03
2023-04-25T00:20:13.932Z,1.83
2023-04-25T00:23:19.608Z,1.90
2023-04-25T00:26:23.468Z,1.80
2023-04-25T00:29:27.330Z,2.00
2023-04-25T00:32:32.680Z,2.10
2023-04-25T00:35:37.127Z,1.80
2023-04-25T00:38:41.221Z,2.07
2023-04-25T00:41:45.796Z,2.30
2023-04-25T00:44:50.122Z,2.10
2023-04-25T00:47:55.547Z,2.40
2023-04-25T00:51:01.085Z,2.30
2023-04-25T00:54:04.843Z,2.10
2023-04-25T00:57:08.571Z,2.00
2023-04-25T01:00:14.584Z,2.47
2023-04-25T01:03:21.495Z,2.10
2023-04-25T01:06:25.193Z,2.40
2023-04-25T01:09:28.813Z,2.17
2023-04-25T01:12:32.666Z,2.20
2023-04-25T01:15:37.028Z,2.13
2023-04-25T01:18:45.062Z,2.60
2023-04-25T01:21:50.483Z,2.10
2023-04-25T01:24:54.626Z,2.40
2023-04-25T01:27:59.336Z,2.20
2023-04-25T01:31:04.144Z,2.23
2023-04-25T01:34:07.839Z,2.27
2023-04-25T01:37:13.074Z,2.33
2023-04-25T01:40:16.690Z,2.77
2023-04-25T01:43:20.456Z,3.27
2023-04-25T01:46:24.446Z,3.37
2023-04-25T01:49:27.978Z,3.30
2023-04-25T01:52:33.136Z,3.30
2023-04-25T01:55:37.197Z,3.27
2023-04-25T01:58:45.831Z,3.10
2023-04-25T02:02:07.269Z,3.13
2023-04-25T02:05:12.714Z,2.90
2023-04-25T02:08:19.905Z,3.13
2023-04-25T02:11:23.546Z,2.47
2023-04-25T02:14:50.001Z,2.30
2023-04-25T02:18:17.676Z,2.37
2023-04-25T02:21:21.537Z,2.53
2023-04-25T02:24:26.672Z,2.67
2023-04-25T02:27:32.805Z,2.73
2023-04-25T02:30:36.599Z,3.27
2023-04-25T02:33:42.274Z,3.07
2023-04-25T02:36:46.015Z,3.60
2023-04-25T02:39:51.007Z,3.80
2023-04-25T02:42:55.677Z,4.53
2023-04-25T02:45:59.283Z,4.53
2023-04-25T02:49:02.961Z,4.87
2023-04-25T02:52:07.208Z,5.17
2023-04-25T02:55:13.413Z,6.30
2023-04-25T02:58:17.349Z,5.80
2023-04-25T03:01:24.366Z,5.67
2023-04-25T03:04:28.027Z,5.20
2023-04-25T03:07:32.400Z,5.23
2023-04-25T03:10:37.619Z,4.80
2023-04-25T03:13:43.830Z,4.30
2023-04-25T03:16:48.360Z,3.90
2023-04-25T03:19:54.389Z,4.57
2023-04-25T03:22:58.640Z,4.23
2023-04-25T03:26:03.784Z,4.43
2023-04-25T03:29:07.718Z,4.77
2023-04-25T03:32:12.651Z,4.10
2023-04-25T03:35:17.259Z,4.20
2023-04-25T03:38:20.990Z,4.30
2023-04-25T03:41:26.256Z,4.50
2023-04-25T03:44:34.664Z,4.00
2023-04-25T03:47:38.956Z,3.87
2023-04-25T03:50:42.922Z,4.03
2023-04-25T03:53:47.150Z,4.57
2023-04-25T03:57:12.233Z,4.37
2023-04-25T04:00:17.764Z,4.93
2023-04-25T04:03:21.790Z,4.93
2023-04-25T04:06:26.712Z,5.33
2023-04-25T04:09:39.000Z,5.50
2023-04-25T04:12:48.133Z,5.17
2023-04-25T04:15:52.012Z,5.70
2023-04-25T04:18:55.744Z,5.43
2023-04-25T04:21:59.490Z,5.80
2023-04-25T04:25:04.396Z,5.20
2023-04-25T04:28:39.158Z,4.77
2023-04-25T04:31:53.821Z,5.20
2023-04-25T04:34:58.434Z,6.07
2023-04-25T04:38:03.359Z,6.13
2023-04-25T04:41:11.054Z,5.53
2023-04-25T04:44:28.064Z,5.63
2023-04-25T04:47:44.673Z,6.73
2023-04-25T04:51:11.994Z,5.67
2023-04-25T04:54:28.347Z,6.27
2023-04-25T04:57:49.615Z,5.93
2023-04-25T05:01:08.729Z,6.07
2023-04-25T05:04:48.301Z,5.73
2023-04-25T05:08:12.532Z,6.50
2023-04-25T05:11:29.797Z,7.97
2023-04-25T05:14:47.029Z,6.90
2023-04-25T05:18:27.762Z,7.30
2023-04-25T05:21:42.625Z,7.47
2023-04-25T05:25:12.002Z,6.80
2023-04-25T05:28:28.623Z,7.00
2023-04-25T05:31:46.454Z,7.33
2023-04-25T05:34:54.744Z,7.87
2023-04-25T05:38:13.892Z,7.90
2023-04-25T05:41:43.632Z,7.93
2023-04-25T05:45:04.201Z,8.00
2023-04-25T05:48:36.737Z,9.00
2023-04-25T05:51:57.726Z,9.30
2023-04-25T05:55:20.680Z,9.40
2023-04-25T05:58:24.902Z,8.77
2023-04-25T06:01:29.071Z,8.07
2023-04-25T06:04:32.956Z,6.27
2023-04-25T06:07:39.575Z,7.10
2023-04-25T06:10:43.494Z,6.90
2023-04-25T06:13:48.344Z,6.07
2023-04-25T06:16:53.866Z,5.90
2023-04-25T06:19:57.606Z,6.53
2023-04-25T06:23:02.847Z,7.63
2023-04-25T06:26:25.401Z,8.47
2023-04-25T06:29:29.891Z,7.97
2023-04-25T06:32:33.787Z,6.50
2023-04-25T06:35:38.194Z,6.97
2023-04-25T06:38:45.051Z,7.70
2023-04-25T06:41:49.079Z,8.53
2023-04-25T06:45:13.407Z,8.63
2023-04-25T06:48:18.653Z,8.80
2023-04-25T06:51:24.290Z,9.60
2023-04-25T06:54:33.253Z,9.37
2023-04-25T06:57:43.376Z,9.50
2023-04-25T07:01:15.861Z,9.00
2023-04-25T07:04:20.030Z,9.10
2023-04-25T07:07:28.504Z,7.80
2023-04-25T07:10:36.447Z,8.30
2023-04-25T07:13:40.332Z,7.83
2023-04-25T07:16:44.558Z,7.20
2023-04-25T07:19:48.321Z,7.40
2023-04-25T07:22:52.447Z,7.35
2023-04-25T07:25:58.312Z,8.05
2023-04-25T07:29:03.748Z,7.60
2023-04-25T07:32:07.768Z,7.80
2023-04-25T07:35:12.068Z,7.57
2023-04-25T07:38:16.183Z,7.88
2023-04-25T07:41:22.170Z,7.45
2023-04-25T07:44:26.721Z,7.88
2023-04-25T07:47:30.794Z,7.15
2023-04-25T07:50:34.635Z,7.00
2023-04-25T07:53:38.942Z,7.63
2023-04-25T07:56:53.436Z,7.22
2023-04-25T08:00:01.760Z,7.32
2023-04-25T08:03:06.677Z,7.57
2023-04-25T08:06:11.163Z,7.20
2023-04-25T08:09:27.648Z,6.88
2023-04-25T08:12:34.695Z,7.40
2023-04-25T08:15:38.750Z,6.95
2023-04-25T08:18:42.612Z,6.53
2023-04-25T08:21:46.874Z,5.18
2023-04-25T08:24:55.798Z,4.10
2023-04-25T08:28:04.141Z,4.55
2023-04-25T08:31:08.925Z,4.22
2023-04-25T08:34:23.135Z,4.10
2023-04-25T08:37:27.972Z,4.22
2023-04-25T08:40:40.979Z,4.28
2023-04-25T08:43:52.264Z,3.97
2023-04-25T08:46:58.129Z,4.00
2023-04-25T08:50:08.032Z,3.47
2023-04-25T08:53:19.793Z,4.15
2023-04-25T08:56:24.850Z,3.70
2023-04-25T08:59:30.795Z,4.43
2023-04-25T09:02:35.665Z,3.60
2023-04-25T09:05:44.334Z,3.85
2023-04-25T09:08:48.253Z,4.13
2023-04-25T09:11:52.417Z,3.53
2023-04-25T09:15:09.492Z,3.80
2023-04-25T09:18:30.982Z,3.55
2023-04-25T09:21:37.486Z,4.10
2023-04-25T09:24:44.784Z,3.93
2023-04-25T09:27:57.167Z,4.68
2023-04-25T09:31:12.806Z,3.97
2023-04-25T09:34:23.566Z,4.37
2023-04-25T09:37:34.187Z,4.57
2023-04-25T09:40:56.873Z,4.80
2023-04-25T09:44:26.197Z,4.95
2023-04-25T09:47:33.572Z,4.55
2023-04-25T09:50:37.774Z,4.03
2023-04-25T09:53:51.201Z,4.38
2023-04-25T09:57:17.538Z,4.50
2023-04-25T10:00:24.068Z,3.83
2023-04-25T10:03:30.778Z,4.70
2023-04-25T10:07:06.004Z,3.75
2023-04-25T10:10:11.477Z,3.50
2023-04-25T10:13:16.530Z,3.20
2023-04-25T10:16:21.205Z,3.53
2023-04-25T10:19:26.604Z,3.50
2023-04-25T10:22:35.433Z,3.75
2023-04-25T10:25:39.657Z,4.00
2023-04-25T10:28:59.382Z,3.85
2023-04-25T10:32:03.154Z,3.33
2023-04-25T10:35:16.756Z,3.60
2023-04-25T10:38:21.497Z,3.20
2023-04-25T10:41:25.226Z,3.47
2023-04-25T10:44:30.126Z,3.15
2023-04-25T10:47:38.444Z,2.80
2023-04-25T10:50:43.655Z,3.40
2023-04-25T10:53:48.577Z,2.80
2023-04-25T10:56:54.523Z,2.90
2023-04-25T11:00:02.328Z,2.92
2023-04-25T11:03:06.879Z,2.80
2023-04-25T11:06:24.181Z,2.88
2023-04-25T11:09:27.933Z,2.58
2023-04-25T11:12:32.988Z,2.53
2023-04-25T11:15:36.873Z,2.50
2023-04-25T11:18:43.213Z,2.40
2023-04-25T11:21:48.723Z,2.42
2023-04-25T11:24:53.028Z,2.17
2023-04-25T11:27:58.413Z,2.90
2023-04-25T11:31:02.208Z,2.58
2023-04-25T11:34:05.914Z,3.20
2023-04-25T11:37:13.095Z,3.50
2023-04-25T11:40:17.084Z,3.75
2023-04-25T11:43:23.149Z,3.45
2023-04-25T11:46:26.886Z,3.65
2023-04-25T11:49:33.456Z,3.90
2023-04-25T11:52:44.039Z,3.70
2023-04-25T11:55:47.871Z,4.07
2023-04-25T11:58:59.216Z,4.22
2023-04-25T12:02:03.402Z,3.92
2023-04-25T12:05:22.166Z,3.72
2023-04-25T12:08:35.068Z,3.92
2023-04-25T12:11:44.022Z,3.88
2023-04-25T12:14:50.213Z,4.47
2023-04-25T12:17:56.488Z,3.90
2023-04-25T12:21:01.378Z,3.53
2023-04-25T12:24:15.588Z,3.90
2023-04-25T12:27:20.498Z,4.32
2023-04-25T12:30:24.866Z,4.25
2023-04-25T12:33:29.790Z,4.78
2023-04-25T12:36:33.750Z,3.80
2023-04-25T12:39:39.126Z,4.60
2023-04-25T12:42:42.928Z,4.03
2023-04-25T12:45:46.956Z,4.32
2023-04-25T12:48:51.038Z,4.13
2023-04-25T12:51:55.024Z,4.15
2023-04-25T12:55:00.322Z,3.75
2023-04-25T12:58:04.546Z,3.65
2023-04-25T13:01:08.506Z,3.47
2023-04-25T13:04:12.505Z,3.30
2023-04-25T13:07:17.388Z,3.00
2023-04-25T13:10:22.487Z,2.88
2023-04-25T13:13:28.600Z,2.60
2023-04-25T13:16:32.462Z,2.95
2023-04-25T13:19:36.214Z,2.28
2023-04-25T13:22:40.822Z,2.28
2023-04-25T13:25:46.011Z,2.35
2023-04-25T13:28:49.752Z,2.67
2023-04-25T13:31:53.381Z,2.30
2023-04-25T13:34:57.237Z,2.00
2023-04-25T13:38:01.337Z,2.30
2023-04-25T13:41:08.238Z,2.50
2023-04-25T13:44:12.775Z,1.63
2023-04-25T13:47:16.593Z,1.98
2023-04-25T13:50:20.593Z,1.75
2023-04-25T13:53:24.344Z,1.83
2023-04-25T13:56:29.744Z,2.33
2023-04-25T13:59:33.951Z,3.30
2023-04-25T14:02:38.402Z,2.08
2023-04-25T14:05:42.243Z,1.70
2023-04-25T14:08:46.252Z,2.25
2023-04-25T14:11:51.509Z,1.40
2023-04-25T14:14:55.503Z,1.33
2023-04-25T14:17:59.522Z,1.20
2023-04-25T14:21:03.431Z,1.52
2023-04-25T14:24:07.659Z,1.10
2023-04-25T14:27:13.766Z,1.67
2023-04-25T14:30:18.026Z,1.30
2023-04-25T14:33:21.827Z,1.45
2023-04-25T14:36:25.713Z,1.45
2023-04-25T14:39:29.450Z,1.30
2023-04-25T14:42:35.427Z,1.60
2023-04-25T14:45:39.265Z,1.80
2023-04-25T14:48:43.082Z,1.42
2023-04-25T14:51:46.988Z,1.20
2023-04-25T14:54:50.729Z,1.10
2023-04-25T14:57:57.562Z,1.25
2023-04-25T15:01:01.828Z,1.23
2023-04-25T15:04:06.142Z,1.08
2023-04-25T15:07:10.047Z,1.75
2023-04-25T15:10:17.313Z,1.45
2023-04-25T15:13:23.170Z,1.15
2023-04-25T15:16:26.861Z,1.30
2023-04-25T15:19:30.682Z,1.38
2023-04-25T15:22:34.497Z,1.50
2023-04-25T15:25:38.300Z,2.13
2023-04-25T15:28:43.882Z,2.33
2023-04-25T15:31:47.720Z,1.38
2023-04-25T15:34:52.283Z,0.93
2023-04-25T15:37:56.087Z,1.00
2023-04-25T15:40:59.902Z,0.90
2023-04-25T15:44:05.519Z,0.90
2023-04-25T15:47:09.360Z,0.98
2023-04-25T15:50:15.000Z,1.00
2023-04-25T15:53:18.890Z,0.95
2023-04-25T15:56:22.716Z,1.33
2023-04-25T15:59:28.193Z,0.85
2023-04-25T16:02:32.610Z,0.90
2023-04-25T16:05:36.550Z,0.90
2023-04-25T16:08:40.330Z,1.00
2023-04-25T16:11:44.072Z,1.23
2023-04-25T16:14:49.212Z,0.80
2023-04-25T16:17:53.009Z,1.00
2023-04-25T16:20:56.954Z,1.20
2023-04-25T16:24:00.750Z,1.25
2023-04-25T16:27:04.628Z,1.63
2023-04-25T16:30:12.073Z,1.27
2023-04-25T16:33:15.896Z,1.42
2023-04-25T16:36:19.788Z,1.88
2023-04-25T16:39:23.746Z,2.33
2023-04-25T16:42:27.545Z,1.90
2023-04-25T16:45:32.758Z,1.40
2023-04-25T16:48:36.591Z,1.20
2023-04-25T16:51:40.396Z,1.77
2023-04-25T16:54:44.095Z,1.67
2023-04-25T16:57:47.981Z,1.58
2023-04-25T17:00:53.202Z,1.33
2023-04-25T17:03:57.168Z,1.70
2023-04-25T17:07:01.127Z,2.20
2023-04-25T17:10:05.122Z,1.70
2023-04-25T17:13:08.977Z,1.87
2023-04-25T17:16:16.919Z,1.60
2023-04-25T17:19:21.802Z,1.90
2023-04-25T17:22:25.970Z,1.77
2023-04-25T17:25:29.792Z,2.00
2023-04-25T17:28:33.452Z,1.70
2023-04-25T17:31:39.374Z,1.77
2023-04-25T17:34:43.907Z,2.43
2023-04-25T17:37:47.738Z,2.40
2023-04-25T17:40:51.597Z,2.13
2023-04-25T17:43:55.464Z,2.30
2023-04-25T17:47:01.391Z,2.23
2023-04-25T17:50:05.755Z,1.93
2023-04-25T17:53:09.656Z,2.10
2023-04-25T17:56:25.747Z,2.27
2023-04-25T17:59:30.687Z,2.43
2023-04-25T18:02:37.053Z,2.23
2023-04-25T18:05:41.474Z,2.10
2023-04-25T18:08:45.714Z,2.63
2023-04-25T18:11:50.477Z,2.47
2023-04-25T18:14:54.285Z,2.40
2023-04-25T18:17:59.706Z,2.40
2023-04-25T18:21:05.891Z,2.00
2023-04-25T18:24:12.632Z,1.63
2023-04-25T18:27:16.545Z,2.57
2023-04-25T18:30:20.382Z,2.37
2023-04-25T18:33:25.676Z,2.80
2023-04-25T18:36:29.877Z,2.50
2023-04-25T18:39:33.712Z,2.77
2023-04-25T18:42:38.145Z,2.67
2023-04-25T18:45:42.312Z,2.40
2023-04-25T18:48:47.791Z,2.50
2023-04-25T18:51:52.073Z,2.43
2023-04-25T18:54:55.810Z,2.33
2023-04-25T18:57:59.687Z,3.23
2023-04-25T19:01:03.948Z,2.87
2023-04-25T19:04:09.856Z,2.60
2023-04-25T19:07:15.098Z,2.60
2023-04-25T19:10:19.027Z,2.37
2023-04-25T19:13:23.157Z,2.13
2023-04-25T19:16:27.674Z,1.80
2023-04-25T19:19:33.013Z,1.80
2023-04-25T19:22:36.974Z,1.83
2023-04-25T19:25:40.836Z,2.20
2023-04-25T19:28:45.813Z,2.00
2023-04-25T19:31:49.679Z,2.07
2023-04-25T19:34:54.822Z,2.03
2023-04-25T19:37:58.692Z,2.40
2023-04-25T19:41:02.697Z,2.40
2023-04-25T19:44:08.632Z,2.77
2023-04-25T19:47:12.697Z,2.47
2023-04-25T19:50:18.190Z,2.67
2023-04-25T19:53:21.916Z,2.57
2023-04-25T19:56:26.780Z,2.43
2023-04-25T19:59:30.650Z,2.70
2023-04-25T20:02:34.377Z,2.33
2023-04-25T20:05:39.576Z,2.00
2023-04-25T20:08:43.704Z,2.17
2023-04-25T20:11:47.444Z,2.10
2023-04-25T20:14:51.279Z,1.80
2023-04-25T20:17:55.234Z,1.90
2023-04-25T20:21:00.473Z,2.60
2023-04-25T20:24:04.407Z,3.40
2023-04-25T20:27:08.417Z,3.00
2023-04-25T20:30:13.174Z,2.73
2023-04-25T20:33:16.922Z,3.10
2023-04-25T20:36:22.108Z,2.50
2023-04-25T20:39:26.026Z,1.97
2023-04-25T20:42:29.929Z,2.30
2023-04-25T20:45:34.712Z,2.00
2023-04-25T20:48:38.629Z,1.80
2023-04-25T20:51:44.454Z,1.90
2023-04-25T20:54:50.709Z,1.73
2023-04-25T20:57:54.673Z,1.63
2023-04-25T21:00:58.758Z,1.60
2023-04-25T21:04:02.610Z,1.23
2023-04-25T21:07:08.150Z,1.13
2023-04-25T21:10:13.257Z,1.10
2023-04-25T21:13:17.145Z,1.47
2023-04-25T21:16:21.494Z,1.10
2023-04-25T21:19:25.272Z,1.23
2023-04-25T21:22:30.366Z,1.00
2023-04-25T21:25:34.208Z,1.20
2023-04-25T21:28:37.973Z,1.07
2023-04-25T21:31:42.479Z,1.43
2023-04-25T21:34:46.288Z,1.10
2023-04-25T21:37:52.155Z,1.30
2023-04-25T21:40:55.934Z,1.30
2023-04-25T21:43:59.713Z,1.60
2023-04-25T21:47:04.889Z,1.40
2023-04-25T21:50:09.607Z,1.47
2023-04-25T21:53:14.857Z,1.60
2023-04-25T21:56:18.639Z,1.50
2023-04-25T21:59:25.254Z,1.60
2023-04-25T22:02:31.263Z,1.40
2023-04-25T22:05:36.534Z,1.60
2023-04-25T22:08:41.734Z,1.60
2023-04-25T22:11:45.623Z,1.47
2023-04-25T22:14:49.493Z,1.40
2023-04-25T22:17:55.484Z,1.67
2023-04-25T22:20:59.744Z,2.20
2023-04-25T22:24:05.386Z,2.83
2023-04-25T22:27:10.401Z,2.70
2023-04-25T22:30:14.468Z,2.40
2023-04-25T22:33:18.343Z,2.17
2023-04-25T22:36:24.115Z,2.10
2023-04-25T22:39:29.947Z,1.80
2023-04-25T22:42:39.976Z,2.03
2023-04-25T22:45:43.749Z,1.80
2023-04-25T22:48:48.778Z,2.00
2023-04-25T22:51:55.683Z,1.93
2023-04-25T22:55:01.878Z,1.93
2023-04-25T22:58:07.802Z,1.67
2023-04-25T23:01:11.754Z,1.70
2023-04-25T23:04:16.778Z,1.57
2023-04-25T23:07:20.820Z,1.40
2023-04-25T23:10:26.092Z,1.40
2023-04-25T23:13:31.863Z,1.50
2023-04-25T23:16:35.873Z,1.70
2023-04-25T23:19:40.017Z,1.60
2023-04-25T23:22:43.858Z,1.50
2023-04-25T23:25:49.134Z,1.40
2023-04-25T23:28:53.835Z,1.47
2023-04-25T23:31:58.008Z,1.20
2023-04-25T23:35:01.945Z,1.20
2023-04-25T23:38:05.520Z,1.40
2023-04-25T23:41:10.647Z,1.17
2023-04-25T23:44:14.395Z,1.50
2023-04-25T23:47:19.229Z,1.20
2023-04-25T23:50:23.015Z,1.47
2023-04-25T23:53:26.808Z,1.50
2023-04-25T23:56:32.273Z,1.30
2023-04-25T23:59:36.107Z,1.40
